AirNav   Duncan Aviation - Near you to keep you flying
 
 910 users online  

IL60 Idlas Airport
Genoa, Illinois, USA

GOING TO GENOA?


FAA INFORMATION EFFECTIVE 01 DECEMBER 2022

Location

FAA Identifier: IL60
Lat/Long: 42-07-53.0900N 088-41-59.3300W
42-07.884833N 088-41.988833W
42.1314139,-88.6998139
(estimated)
Elevation: 850 ft. / 259 m
From city: 3 miles N of GENOA, IL
Time zone: UTC -6 (UTC -5 during Daylight Saving Time)
Zip code: 60135

Airport Operations

Airport use: Private use. Permission required prior to landing
Activation date: 10/2015
Control tower: no
ARTCC: CHICAGO CENTER
FSS: KANKAKEE FLIGHT SERVICE STATION
Attendance: 
Segmented circle: no

Airport Communications

WX AWOS-3 at DKB (12 nm S): 119.075 (815-748-2350)
WX ASOS at RFD (18 nm W): PHONE 815-484-6229

Nearby radio navigation aids

VOR radial/distance  VOR name  Freq  Var
DPAr311/21.3DUPAGE VOR/DME108.4002E
JVLr142/31.3JANESVILLE VOR/DME114.3003E
OBKr263/33.7NORTHBROOK VOR/DME113.0002W
PLLr072/38.1POLO VOR/DME111.2003E
JOTr332/39.0JOLIET VOR/DME112.3002E

Airport Services

Runway Information

Runway 18/36

Dimensions: 2380 x 100 ft. / 725 x 30 m
Surface: turf, in good condition
RUNWAY 18  RUNWAY 36
Traffic pattern: leftleft

Airport Ownership and Management from official FAA records

Ownership: Privately-owned
Owner: PAUL IDLAS
84 VILLAGE STATION LN
GRAYSLAKE, IL 60030
Phone 847 502 3626
Manager: PAUL IDLAS
84 VILLAGE STATION LN
GRAYSLAKE, IL 60030
Phone 847 502 3626

Airport Operational Statistics

Aircraft based on the field: 6
Single engine airplanes: 6
    

Additional Remarks

FOR CD CTC CHICAGO APCH AT 847-289-0926.

Instrument Procedures

There are no published instrument procedures at IL60.

Some nearby airports with instrument procedures:

KDKB - De Kalb Taylor Municipal Airport (12 nm S)
C77 - Poplar Grove Airport (13 nm NW)
3CK - Lake in the Hills Airport (17 nm E)
KRFD - Chicago/Rockford International Airport (18 nm W)
10C - Galt Field Airport (22 nm NE)
 
Loc | Ops | Rwys | IFR | FBO | Links
Com | Nav | Svcs | Stats | Notes
Aerial photo
No photo
 
Airport distance calculator
Flying to Idlas Airport? Find the distance to fly.

From to IL60

Sunrise and sunset
Times for 07-Dec-2022
 Local
(UTC-6)
 Zulu
(UTC)
Morning civil twilight06:3912:39
Sunrise07:1113:11
Sunset16:2222:22
Evening civil twilight16:5322:53

Current date and time
Zulu (UTC)  07-Dec-2022 13:20:58
Local (UTC-6)  07-Dec-2022 07:20:58
 
METAR
KDKB 
12nm S 
071255Z AUTO 00000KT 1 1/2SM BR SCT002 OVC015 01/01 A3019 RMK AO2 T00050005
KRFD 
18nm W 
071254Z 00000KT 5SM BR OVC013 01/M01 A3021 RMK AO2 SLP237 T00111006
KRPJ 
22nm SW 
071255Z AUTO 00000KT 5SM BR OVC012 03/02 A3019 RMK AO2 T00250017 TSNO
TAF
KRFD 
18nm W 
071120Z 0712/0812 VRB03KT 6SM BR OVC010 TEMPO 0712/0715 1SM BR OVC005 FM071800 31005KT P6SM BKN015 FM072100 35005KT P6SM BKN025 FM080100 01005KT P6SM SCT025 BKN100
NOTAMs
Click for the latest NOTAMs
NOTAMs are issued by the DoD/FAA and will open in a separate window not controlled by AirNav.

 

 
 

Would you like to see your business listed on this page?

 If your business provides an interesting product or service to pilots, flight crews, aircraft, or users of the Idlas Airport, you should consider listing it here.  To start the listing process, click on the button below
 
Add a business
 

Other Pages about Idlas Airport

Update a link
 
Copyright © AirNav, LLC. All rights reserved. Privacy Policy  Contact